createdAt,value
2019-05-22T00:01:20.339Z,5.47
2019-05-22T00:03:54.022Z,5.30
2019-05-22T00:06:25.732Z,5.43
2019-05-22T00:08:56.854Z,5.40
2019-05-22T00:11:28.084Z,5.23
2019-05-22T00:13:59.641Z,5.40
2019-05-22T00:16:30.671Z,5.47
2019-05-22T00:19:00.081Z,5.20
2019-05-22T00:21:30.127Z,5.40
2019-05-22T00:24:00.193Z,5.33
2019-05-22T00:26:30.191Z,6.00
2019-05-22T00:28:59.605Z,5.83
2019-05-22T00:31:29.939Z,6.20
2019-05-22T00:34:00.131Z,6.40
2019-05-22T00:36:29.871Z,6.73
2019-05-22T00:39:00.538Z,7.10
2019-05-22T00:41:32.655Z,6.67
2019-05-22T00:44:04.084Z,7.60
2019-05-22T00:46:33.952Z,6.80
2019-05-22T00:49:03.951Z,7.60
2019-05-22T00:51:36.407Z,7.87
2019-05-22T00:54:24.049Z,7.97
2019-05-22T00:56:56.439Z,7.37
2019-05-22T00:59:31.583Z,7.60
2019-05-22T01:02:05.065Z,7.43
2019-05-22T01:04:36.802Z,7.47
2019-05-22T01:07:18.168Z,7.50
2019-05-22T01:09:52.928Z,8.23
2019-05-22T01:12:34.032Z,8.00
2019-05-22T01:15:07.235Z,8.03
2019-05-22T01:17:38.124Z,8.80
2019-05-22T01:20:10.420Z,8.77
2019-05-22T01:22:41.621Z,8.60
2019-05-22T01:25:14.301Z,9.20
2019-05-22T01:27:45.864Z,8.97
2019-05-22T01:30:19.253Z,8.97
2019-05-22T01:32:51.881Z,9.07
2019-05-22T01:35:22.944Z,8.60
2019-05-22T01:37:53.119Z,9.20
2019-05-22T01:40:45.115Z,9.53
2019-05-22T01:43:20.977Z,9.60
2019-05-22T01:45:52.568Z,9.50
2019-05-22T01:48:25.870Z,9.63
2019-05-22T01:51:00.297Z,10.47
2019-05-22T01:53:34.394Z,10.13
2019-05-22T01:56:08.649Z,10.30
2019-05-22T01:58:39.156Z,9.57
2019-05-22T02:01:13.278Z,9.27
2019-05-22T02:03:44.761Z,8.73
2019-05-22T02:06:14.945Z,9.40
2019-05-22T02:08:51.532Z,9.70
2019-05-22T02:11:23.355Z,9.37
2019-05-22T02:14:12.412Z,8.93
2019-05-22T02:16:56.344Z,9.97
2019-05-22T02:19:16.513Z,10.97
2019-05-22T02:21:46.126Z,9.53
2019-05-22T02:24:15.961Z,9.77
2019-05-22T02:26:45.919Z,9.03
2019-05-22T02:29:17.329Z,10.07
2019-05-22T02:31:48.003Z,9.67
2019-05-22T02:34:17.952Z,9.37
2019-05-22T02:36:48.385Z,9.80
2019-05-22T02:39:26.180Z,10.00
2019-05-22T02:41:59.666Z,9.67
2019-05-22T02:44:29.710Z,9.53
2019-05-22T02:47:18.352Z,10.00
2019-05-22T02:49:35.956Z,10.17
2019-05-22T02:52:09.910Z,9.53
2019-05-22T02:54:39.860Z,10.53
2019-05-22T02:57:10.973Z,11.30
2019-05-22T02:59:42.317Z,10.30
2019-05-22T03:02:14.059Z,10.30
2019-05-22T03:05:03.683Z,10.60
2019-05-22T03:07:33.701Z,9.23
2019-05-22T03:10:05.748Z,9.17
2019-05-22T03:12:36.375Z,8.87
2019-05-22T03:15:08.775Z,9.20
2019-05-22T03:17:40.850Z,9.97
2019-05-22T03:20:13.710Z,9.10
2019-05-22T03:22:46.150Z,10.77
2019-05-22T03:25:18.202Z,11.27
2019-05-22T03:27:50.604Z,12.13
2019-05-22T03:30:33.892Z,11.67
2019-05-22T03:33:06.238Z,11.53
2019-05-22T03:35:47.941Z,11.23
2019-05-22T03:38:18.866Z,11.10
2019-05-22T03:40:51.498Z,11.90
2019-05-22T03:43:28.259Z,12.40
2019-05-22T03:46:00.574Z,11.90
2019-05-22T03:48:36.254Z,12.47
2019-05-22T03:51:14.301Z,11.90
2019-05-22T03:53:46.271Z,13.03
2019-05-22T03:56:17.375Z,12.63
2019-05-22T03:58:47.023Z,12.03
2019-05-22T04:01:17.686Z,13.10
2019-05-22T04:03:48.332Z,12.77
2019-05-22T04:06:19.398Z,12.80
2019-05-22T04:08:50.502Z,12.53
2019-05-22T04:11:21.452Z,13.33
2019-05-22T04:13:50.856Z,13.50
2019-05-22T04:16:22.191Z,14.07
2019-05-22T04:18:52.175Z,14.93
2019-05-22T04:21:21.588Z,14.60
2019-05-22T04:23:51.355Z,13.67
2019-05-22T04:26:20.855Z,13.50
2019-05-22T04:28:52.961Z,14.27
2019-05-22T04:31:35.348Z,15.53
2019-05-22T04:34:05.153Z,12.07
2019-05-22T04:36:35.609Z,11.80
2019-05-22T04:39:09.267Z,11.83
2019-05-22T04:41:39.007Z,12.07
2019-05-22T04:44:08.457Z,12.57
2019-05-22T04:46:38.220Z,12.30
2019-05-22T04:49:07.688Z,11.73
2019-05-22T04:51:37.099Z,12.83
2019-05-22T04:54:06.657Z,13.67
2019-05-22T04:56:36.743Z,13.07
2019-05-22T04:59:06.616Z,13.47
2019-05-22T05:01:37.292Z,13.63
2019-05-22T05:04:06.938Z,13.60
2019-05-22T05:06:37.726Z,12.27
2019-05-22T05:09:09.857Z,12.97
2019-05-22T05:11:39.908Z,12.73
2019-05-22T05:14:09.420Z,13.00
2019-05-22T05:16:39.103Z,12.00
2019-05-22T05:19:08.960Z,12.60
2019-05-22T05:21:39.128Z,11.93
2019-05-22T05:24:08.704Z,13.13
2019-05-22T05:26:39.098Z,11.83
2019-05-22T05:29:11.269Z,12.13
2019-05-22T05:31:41.212Z,13.53
2019-05-22T05:34:38.336Z,13.10
2019-05-22T05:37:09.748Z,13.47
2019-05-22T05:39:43.982Z,12.10
2019-05-22T05:42:13.580Z,12.60
2019-05-22T05:44:42.975Z,12.30
2019-05-22T05:47:12.572Z,13.17
2019-05-22T05:49:42.742Z,13.17
2019-05-22T05:52:13.217Z,13.13
2019-05-22T05:54:43.536Z,12.13
2019-05-22T05:57:36.363Z,11.90
2019-05-22T06:00:12.306Z,12.90
2019-05-22T06:02:55.682Z,12.30
2019-05-22T06:05:14.380Z,10.30
2019-05-22T06:07:44.302Z,12.53
2019-05-22T06:10:25.750Z,11.97
2019-05-22T06:12:55.547Z,12.75
2019-05-22T06:15:46.580Z,11.17
2019-05-22T06:18:29.758Z,10.90
2019-05-22T06:21:03.985Z,11.77
2019-05-22T06:23:33.907Z,11.27
2019-05-22T06:26:04.857Z,11.93
2019-05-22T06:28:38.000Z,11.67
2019-05-22T06:31:10.635Z,11.53
2019-05-22T06:33:41.167Z,12.13
2019-05-22T06:36:13.220Z,11.07
2019-05-22T06:38:48.658Z,11.20
2019-05-22T06:41:20.080Z,11.23
2019-05-22T06:44:21.731Z,10.57
2019-05-22T06:46:51.136Z,11.10
2019-05-22T06:49:35.754Z,10.50
2019-05-22T06:52:07.447Z,11.53
2019-05-22T06:54:38.274Z,11.63
2019-05-22T06:57:13.444Z,11.23
2019-05-22T06:59:43.465Z,10.73
2019-05-22T07:02:14.996Z,9.77
2019-05-22T07:04:44.940Z,10.17
2019-05-22T07:07:15.570Z,10.50
2019-05-22T07:09:45.635Z,10.80
2019-05-22T07:12:17.439Z,10.07
2019-05-22T07:15:06.373Z,10.17
2019-05-22T07:17:37.475Z,10.77
2019-05-22T07:20:08.017Z,11.30
2019-05-22T07:22:37.415Z,8.90
2019-05-22T07:25:09.441Z,11.17
2019-05-22T07:27:39.839Z,9.77
2019-05-22T07:30:11.215Z,9.87
2019-05-22T07:32:41.068Z,9.93
2019-05-22T07:35:10.561Z,10.63
2019-05-22T07:37:45.221Z,8.63
2019-05-22T07:40:15.359Z,9.47
2019-05-22T07:42:45.207Z,9.33
2019-05-22T07:45:15.735Z,9.70
2019-05-22T07:47:46.563Z,9.90
2019-05-22T07:50:17.312Z,10.63
2019-05-22T07:52:47.983Z,10.17
2019-05-22T07:55:19.826Z,10.97
2019-05-22T07:57:51.764Z,11.10
2019-05-22T08:00:21.843Z,9.97
2019-05-22T08:02:51.542Z,10.87
2019-05-22T08:05:23.313Z,10.60
2019-05-22T08:07:53.687Z,10.70
2019-05-22T08:10:23.736Z,9.97
2019-05-22T08:12:53.377Z,9.10
2019-05-22T08:15:23.689Z,8.30
2019-05-22T08:17:53.098Z,10.00
2019-05-22T08:20:22.850Z,8.80
2019-05-22T08:22:55.376Z,9.33
2019-05-22T08:25:25.026Z,8.40
2019-05-22T08:27:55.887Z,9.00
2019-05-22T08:30:25.936Z,9.00
2019-05-22T08:32:58.317Z,9.37
2019-05-22T08:35:28.533Z,8.67
2019-05-22T08:37:58.294Z,8.47
2019-05-22T08:40:30.681Z,7.93
2019-05-22T08:43:00.617Z,8.03
2019-05-22T08:45:30.455Z,7.90
2019-05-22T08:48:00.032Z,6.50
2019-05-22T08:50:31.052Z,6.73
2019-05-22T08:53:01.035Z,6.97
2019-05-22T08:55:34.341Z,7.30
2019-05-22T08:58:04.625Z,8.20
2019-05-22T09:00:34.792Z,7.60
2019-05-22T09:03:04.828Z,7.53
2019-05-22T09:05:34.729Z,8.10
2019-05-22T09:08:04.237Z,7.27
2019-05-22T09:10:33.884Z,7.70
2019-05-22T09:13:03.642Z,8.00
2019-05-22T09:15:34.857Z,7.50
2019-05-22T09:18:05.028Z,6.80
2019-05-22T09:20:48.715Z,6.40
2019-05-22T09:23:06.095Z,6.73
2019-05-22T09:25:35.819Z,7.20
2019-05-22T09:28:07.204Z,7.10
2019-05-22T09:30:37.057Z,7.03
2019-05-22T09:33:08.419Z,6.10
2019-05-22T09:35:38.109Z,7.07
2019-05-22T09:38:07.949Z,6.00
2019-05-22T09:40:37.536Z,6.37
2019-05-22T09:43:07.029Z,6.97
2019-05-22T09:45:36.998Z,5.10
2019-05-22T09:48:08.054Z,7.20
2019-05-22T09:50:37.678Z,4.93
2019-05-22T09:53:07.927Z,7.80
2019-05-22T09:55:38.231Z,6.67
2019-05-22T09:58:08.295Z,5.80
2019-05-22T10:00:38.427Z,7.27
2019-05-22T10:03:08.697Z,6.00
2019-05-22T10:05:38.491Z,6.62
2019-05-22T10:08:08.270Z,6.65
2019-05-22T10:10:37.943Z,8.00
2019-05-22T10:13:07.489Z,5.65
2019-05-22T10:15:37.523Z,6.97
2019-05-22T10:18:07.062Z,5.95
2019-05-22T10:20:36.872Z,4.72
2019-05-22T10:23:15.660Z,5.97
2019-05-22T10:25:38.833Z,5.72
2019-05-22T10:28:08.938Z,5.70
2019-05-22T10:30:38.517Z,6.28
2019-05-22T10:33:08.411Z,7.05
2019-05-22T10:35:39.462Z,5.78
2019-05-22T10:38:09.362Z,5.67
2019-05-22T10:40:39.152Z,6.25
2019-05-22T10:43:08.795Z,5.60
2019-05-22T10:45:38.765Z,4.78
2019-05-22T10:48:08.225Z,4.53
2019-05-22T10:50:37.876Z,4.83
2019-05-22T10:53:07.943Z,4.78
2019-05-22T10:55:37.595Z,5.10
2019-05-22T10:58:08.138Z,4.80
2019-05-22T11:00:38.049Z,4.90
2019-05-22T11:03:07.614Z,4.62
2019-05-22T11:05:37.239Z,5.12
2019-05-22T11:08:07.476Z,6.03
2019-05-22T11:10:37.052Z,5.83
2019-05-22T11:13:10.117Z,6.50
2019-05-22T11:15:39.648Z,6.12
2019-05-22T11:18:10.449Z,5.70
2019-05-22T11:20:40.606Z,5.70
2019-05-22T11:23:10.065Z,4.97
2019-05-22T11:25:39.651Z,3.52
2019-05-22T11:28:09.097Z,2.22
2019-05-22T11:30:39.243Z,2.00
2019-05-22T11:33:09.349Z,2.50
2019-05-22T11:35:39.021Z,2.02
2019-05-22T11:38:09.197Z,2.37
2019-05-22T11:40:40.613Z,1.90
2019-05-22T11:43:11.219Z,1.80
2019-05-22T11:45:44.772Z,1.82
2019-05-22T11:48:12.014Z,1.95
2019-05-22T11:50:43.233Z,1.80
2019-05-22T11:53:13.693Z,1.90
2019-05-22T11:55:46.153Z,1.90
2019-05-22T11:58:14.821Z,1.87
2019-05-22T12:00:44.312Z,1.80
2019-05-22T12:03:14.161Z,2.30
2019-05-22T12:05:44.831Z,2.20
2019-05-22T12:08:15.163Z,1.92
2019-05-22T12:10:45.139Z,2.05
2019-05-22T12:13:15.186Z,1.82
2019-05-22T12:15:45.129Z,2.05
2019-05-22T12:18:15.079Z,2.20
2019-05-22T12:20:44.741Z,1.70
2019-05-22T12:23:14.249Z,1.80
2019-05-22T12:25:43.867Z,2.12
2019-05-22T12:28:13.525Z,2.37
2019-05-22T12:30:43.950Z,2.80
2019-05-22T12:33:14.482Z,2.42
2019-05-22T12:35:44.892Z,2.50
2019-05-22T12:38:14.936Z,2.75
2019-05-22T12:40:45.053Z,2.83
2019-05-22T12:43:15.998Z,2.50
2019-05-22T12:45:45.914Z,2.47
2019-05-22T12:48:15.951Z,2.27
2019-05-22T12:50:45.572Z,1.70
2019-05-22T12:53:15.163Z,2.10
2019-05-22T12:55:44.840Z,2.23
2019-05-22T12:58:14.595Z,2.30
2019-05-22T13:00:44.569Z,2.53
2019-05-22T13:03:15.167Z,2.33
2019-05-22T13:05:45.305Z,3.07
2019-05-22T13:08:15.220Z,2.60
2019-05-22T13:10:46.009Z,2.47
2019-05-22T13:13:15.939Z,2.90
2019-05-22T13:15:46.005Z,2.73
2019-05-22T13:18:18.460Z,2.23
2019-05-22T13:20:50.820Z,1.90
2019-05-22T13:23:23.178Z,2.03
2019-05-22T13:25:53.321Z,2.60
2019-05-22T13:28:23.841Z,2.50
2019-05-22T13:30:55.341Z,2.53
2019-05-22T13:33:27.681Z,2.70
2019-05-22T13:35:57.689Z,3.17
2019-05-22T13:38:28.334Z,2.83
2019-05-22T13:40:58.239Z,3.60
2019-05-22T13:43:28.681Z,3.70
2019-05-22T13:45:58.071Z,2.90
2019-05-22T13:48:28.383Z,3.67
2019-05-22T13:50:59.204Z,3.10
2019-05-22T13:53:29.923Z,3.17
2019-05-22T13:55:59.472Z,3.80
2019-05-22T13:58:30.708Z,3.33
2019-05-22T14:01:00.100Z,4.00
2019-05-22T14:03:30.411Z,3.73
2019-05-22T14:06:00.361Z,4.03
2019-05-22T14:08:29.999Z,3.57
2019-05-22T14:10:59.580Z,3.73
2019-05-22T14:13:29.735Z,4.10
2019-05-22T14:15:59.316Z,4.10
2019-05-22T14:18:28.907Z,4.30
2019-05-22T14:20:58.887Z,4.30
2019-05-22T14:23:29.032Z,4.10
2019-05-22T14:25:58.688Z,4.23
2019-05-22T14:28:28.699Z,4.17
2019-05-22T14:30:58.566Z,4.50
2019-05-22T14:33:29.253Z,4.47
2019-05-22T14:36:02.756Z,5.03
2019-05-22T14:38:32.958Z,5.20
2019-05-22T14:41:03.589Z,5.20
2019-05-22T14:43:33.064Z,4.70
2019-05-22T14:46:03.131Z,4.83
2019-05-22T14:48:33.558Z,4.33
2019-05-22T14:51:02.982Z,5.07
2019-05-22T14:53:33.517Z,5.27
2019-05-22T14:56:03.663Z,5.87
2019-05-22T14:58:33.978Z,5.27
2019-05-22T15:01:04.397Z,4.90
2019-05-22T15:03:34.433Z,4.17
2019-05-22T15:06:04.558Z,4.57
2019-05-22T15:08:34.222Z,5.30
2019-05-22T15:11:03.917Z,5.10
2019-05-22T15:13:34.233Z,5.27
2019-05-22T15:16:03.896Z,5.70
2019-05-22T15:18:33.467Z,5.60
2019-05-22T15:21:05.048Z,5.00
2019-05-22T15:23:36.925Z,5.27
2019-05-22T15:26:06.516Z,4.67
2019-05-22T15:28:36.361Z,4.73
2019-05-22T15:31:06.195Z,4.50
2019-05-22T15:33:36.080Z,3.20
2019-05-22T15:36:08.122Z,3.33
2019-05-22T15:38:40.927Z,3.27
2019-05-22T15:41:11.253Z,3.50
2019-05-22T15:43:43.470Z,3.50
2019-05-22T15:46:15.517Z,3.73
2019-05-22T15:48:47.332Z,3.90
2019-05-22T15:51:20.901Z,3.40
2019-05-22T15:53:51.998Z,3.47
2019-05-22T15:56:21.940Z,3.00
2019-05-22T15:58:54.780Z,2.80
2019-05-22T16:01:25.582Z,2.50
2019-05-22T16:03:56.718Z,2.37
2019-05-22T16:06:29.997Z,2.50
2019-05-22T16:09:01.796Z,2.47
2019-05-22T16:11:31.458Z,2.60
2019-05-22T16:14:01.787Z,2.97
2019-05-22T16:16:33.013Z,2.67
2019-05-22T16:19:05.530Z,2.33
2019-05-22T16:21:38.443Z,2.20
2019-05-22T16:24:10.660Z,2.30
2019-05-22T16:26:41.194Z,2.30
2019-05-22T16:29:11.611Z,2.40
2019-05-22T16:31:43.651Z,2.40
2019-05-22T16:34:14.270Z,2.37
2019-05-22T16:36:47.849Z,2.20
2019-05-22T16:39:17.613Z,2.83
2019-05-22T16:41:47.543Z,2.03
2019-05-22T16:44:17.533Z,2.00
2019-05-22T16:46:48.733Z,2.20
2019-05-22T16:49:18.179Z,2.20
2019-05-22T16:51:48.703Z,2.03
2019-05-22T16:54:21.155Z,1.80
2019-05-22T16:56:51.539Z,2.10
2019-05-22T16:59:21.474Z,2.30
2019-05-22T17:01:59.669Z,2.27
2019-05-22T17:04:22.597Z,2.40
2019-05-22T17:06:52.256Z,2.10
2019-05-22T17:09:21.816Z,2.30
2019-05-22T17:11:52.464Z,2.43
2019-05-22T17:14:23.588Z,2.90
2019-05-22T17:16:53.083Z,2.80
2019-05-22T17:19:27.419Z,2.80
2019-05-22T17:21:55.158Z,3.00
2019-05-22T17:24:25.094Z,3.20
2019-05-22T17:26:56.056Z,2.93
2019-05-22T17:29:26.397Z,2.73
2019-05-22T17:31:56.553Z,2.70
2019-05-22T17:34:33.762Z,3.60
2019-05-22T17:37:11.067Z,3.10
2019-05-22T17:39:45.871Z,3.13
2019-05-22T17:42:17.572Z,2.97
2019-05-22T17:44:49.494Z,2.60
2019-05-22T17:47:21.829Z,2.60
2019-05-22T17:49:52.222Z,2.57
2019-05-22T17:52:23.332Z,2.40
2019-05-22T17:54:53.580Z,2.47
2019-05-22T17:57:24.113Z,2.47
2019-05-22T17:59:54.544Z,2.40
2019-05-22T18:02:25.662Z,2.40
2019-05-22T18:04:55.343Z,2.80
2019-05-22T18:07:25.735Z,2.60
2019-05-22T18:09:55.490Z,2.50
2019-05-22T18:12:25.667Z,2.30
2019-05-22T18:14:55.320Z,2.37
2019-05-22T18:17:26.449Z,2.73
2019-05-22T18:19:56.098Z,1.93
2019-05-22T18:22:25.529Z,2.43
2019-05-22T18:24:55.101Z,2.50
2019-05-22T18:27:25.495Z,2.33
2019-05-22T18:29:55.148Z,2.63
2019-05-22T18:32:24.770Z,2.63
2019-05-22T18:34:54.303Z,2.67
2019-05-22T18:37:23.989Z,2.83
2019-05-22T18:39:53.622Z,3.07
2019-05-22T18:42:23.276Z,2.87
2019-05-22T18:44:52.739Z,3.10
2019-05-22T18:47:25.142Z,3.03
2019-05-22T18:49:53.922Z,2.90
2019-05-22T18:52:38.209Z,2.60
2019-05-22T18:54:54.561Z,3.00
2019-05-22T18:57:24.037Z,2.93
2019-05-22T19:00:00.536Z,3.53
2019-05-22T19:02:25.101Z,3.17
2019-05-22T19:04:54.536Z,3.27
2019-05-22T19:07:24.373Z,3.17
2019-05-22T19:09:53.802Z,3.20
2019-05-22T19:12:23.933Z,2.80
2019-05-22T19:14:53.722Z,3.07
2019-05-22T19:17:23.570Z,3.37
2019-05-22T19:19:53.009Z,3.07
2019-05-22T19:22:22.582Z,3.07
2019-05-22T19:24:52.438Z,3.23
2019-05-22T19:27:21.923Z,3.63
2019-05-22T19:29:51.354Z,3.33
2019-05-22T19:32:21.002Z,2.70
2019-05-22T19:34:50.483Z,24.80
2019-05-22T19:37:20.486Z,31.53
2019-05-22T19:39:49.910Z,20.67
2019-05-22T19:42:19.481Z,29.73
2019-05-22T19:44:48.948Z,5.47
2019-05-22T19:47:19.687Z,56.00
2019-05-22T19:49:49.164Z,83.87
2019-05-22T19:52:22.474Z,49.33
2019-05-22T19:54:51.226Z,13.30
2019-05-22T19:57:20.886Z,5.87
2019-05-22T19:59:50.351Z,4.97
2019-05-22T20:02:20.716Z,3.70
2019-05-22T20:04:51.188Z,3.77
2019-05-22T20:07:21.159Z,3.37
2019-05-22T20:09:51.406Z,3.40
2019-05-22T20:12:24.740Z,3.90
2019-05-22T20:14:52.422Z,7.60
2019-05-22T20:17:23.232Z,8.63
2019-05-22T20:19:53.426Z,12.80
2019-05-22T20:22:24.333Z,6.50
2019-05-22T20:24:53.802Z,4.07
2019-05-22T20:27:24.042Z,3.73
2019-05-22T20:29:53.608Z,13.33
2019-05-22T20:32:23.999Z,13.37
2019-05-22T20:34:53.416Z,5.10
2019-05-22T20:37:22.812Z,5.43
2019-05-22T20:39:52.394Z,4.33
2019-05-22T20:42:22.643Z,4.53
2019-05-22T20:44:52.394Z,4.37
2019-05-22T20:47:25.208Z,4.90
2019-05-22T20:49:54.890Z,4.30
2019-05-22T20:52:24.829Z,4.30
2019-05-22T20:54:55.883Z,3.60
2019-05-22T20:57:26.293Z,3.90
2019-05-22T20:59:56.756Z,3.87
2019-05-22T21:02:27.084Z,3.67
2019-05-22T21:04:57.533Z,5.23
2019-05-22T21:07:33.223Z,6.27
2019-05-22T21:10:03.615Z,4.73
2019-05-22T21:12:36.109Z,5.47
2019-05-22T21:15:06.641Z,4.90
2019-05-22T21:17:37.585Z,4.50
2019-05-22T21:20:09.865Z,4.03
2019-05-22T21:22:40.043Z,4.27
2019-05-22T21:25:11.976Z,5.90
2019-05-22T21:27:42.579Z,5.37
2019-05-22T21:30:14.007Z,5.40
2019-05-22T21:32:44.010Z,4.70
2019-05-22T21:35:18.587Z,4.40
2019-05-22T21:37:48.054Z,4.40
2019-05-22T21:40:21.085Z,3.80
2019-05-22T21:42:52.241Z,4.30
2019-05-22T21:45:22.811Z,4.70
2019-05-22T21:47:52.641Z,4.17
2019-05-22T21:50:22.591Z,4.63
2019-05-22T21:52:53.402Z,4.90
2019-05-22T21:55:24.167Z,4.77
2019-05-22T21:57:55.176Z,4.80
2019-05-22T22:00:34.866Z,4.40
2019-05-22T22:03:05.879Z,4.50
2019-05-22T22:05:35.841Z,4.63
2019-05-22T22:08:05.584Z,4.60
2019-05-22T22:10:35.464Z,4.23
2019-05-22T22:13:07.888Z,4.33
2019-05-22T22:15:41.910Z,4.43
2019-05-22T22:18:13.160Z,4.77
2019-05-22T22:20:43.582Z,4.30
2019-05-22T22:23:15.320Z,5.00
2019-05-22T22:25:46.765Z,4.77
2019-05-22T22:28:18.176Z,4.43
2019-05-22T22:30:55.204Z,5.07
2019-05-22T22:33:32.234Z,5.10
2019-05-22T22:36:03.368Z,5.07
2019-05-22T22:38:35.272Z,5.30
2019-05-22T22:41:07.174Z,4.80
2019-05-22T22:43:39.499Z,5.03
2019-05-22T22:46:19.242Z,5.53
2019-05-22T22:48:51.698Z,5.40
2019-05-22T22:51:22.569Z,4.90
2019-05-22T22:53:53.616Z,4.53
2019-05-22T22:56:23.859Z,4.33
2019-05-22T22:58:53.805Z,4.73
2019-05-22T23:01:27.912Z,4.90
2019-05-22T23:04:01.010Z,4.57
2019-05-22T23:06:31.639Z,5.03
2019-05-22T23:09:01.942Z,4.83
2019-05-22T23:11:32.603Z,4.47
2019-05-22T23:14:02.969Z,4.80
2019-05-22T23:16:32.361Z,4.30
2019-05-22T23:19:14.451Z,4.53
2019-05-22T23:21:44.356Z,4.67
2019-05-22T23:24:14.266Z,4.70
2019-05-22T23:26:44.731Z,4.80
2019-05-22T23:29:14.192Z,4.70
2019-05-22T23:31:44.275Z,4.60
2019-05-22T23:34:13.944Z,4.50
2019-05-22T23:36:45.284Z,4.50
2019-05-22T23:39:15.414Z,4.70
2019-05-22T23:41:46.514Z,5.00
2019-05-22T23:44:19.490Z,5.80
2019-05-22T23:46:49.803Z,6.27
2019-05-22T23:49:19.189Z,6.43
2019-05-22T23:51:48.800Z,5.80
2019-05-22T23:54:18.532Z,6.30
2019-05-22T23:56:49.731Z,6.07
2019-05-22T23:59:19.530Z,6.50
